createdAt,value
2023-04-25T00:01:50.255Z,97425.69
2023-04-25T00:06:53.357Z,97420.88
2023-04-25T00:11:55.335Z,97416.44
2023-04-25T00:16:57.246Z,97424.03
2023-04-25T00:21:59.497Z,97414.41
2023-04-25T00:27:01.399Z,97419.19
2023-04-25T00:32:03.564Z,97421.75
2023-04-25T00:37:06.097Z,97420.91
2023-04-25T00:42:08.858Z,97419.06
2023-04-25T00:47:12.103Z,97414.22
2023-04-25T00:52:14.234Z,97416.19
2023-04-25T00:57:16.578Z,97412.97
2023-04-25T01:02:19.056Z,97412.56
2023-04-25T01:07:21.077Z,97415.13
2023-04-25T01:12:24.208Z,97411.66
2023-04-25T01:17:26.351Z,97418.41
2023-04-25T01:22:28.469Z,97414.16
2023-04-25T01:27:30.867Z,97418.13
2023-04-25T01:32:39.611Z,97410.91
2023-04-25T01:37:43.107Z,97412.63
2023-04-25T01:42:47.324Z,97412.81
2023-04-25T01:47:50.737Z,97419.00
2023-04-25T01:52:52.760Z,97415.19
2023-04-25T01:57:55.322Z,97416.72
2023-04-25T02:03:06.783Z,97421.69
2023-04-25T02:08:10.463Z,97413.66
2023-04-25T02:13:12.780Z,97413.41
2023-04-25T02:18:34.187Z,97419.13
2023-04-25T02:23:36.371Z,97412.91
2023-04-25T02:28:38.167Z,97410.84
2023-04-25T02:33:40.507Z,97412.03
2023-04-25T02:38:42.331Z,97406.84
2023-04-25T02:43:44.260Z,97399.16
2023-04-25T02:48:46.189Z,97408.13
2023-04-25T02:53:48.219Z,97405.72
2023-04-25T02:58:50.301Z,97401.69
2023-04-25T03:03:52.486Z,97403.66
2023-04-25T03:08:54.631Z,97408.59
2023-04-25T03:13:56.679Z,97400.38
2023-04-25T03:18:58.616Z,97395.38
2023-04-25T03:24:04.087Z,97395.94
2023-04-25T03:29:06.492Z,97393.88
2023-04-25T03:34:09.617Z,97393.84
2023-04-25T03:39:11.561Z,97393.13
2023-04-25T03:44:15.983Z,97394.31
2023-04-25T03:49:19.396Z,97393.69
2023-04-25T03:54:33.990Z,97402.44
2023-04-25T03:59:45.828Z,97401.66
2023-04-25T04:04:50.535Z,97396.63
2023-04-25T04:09:53.248Z,97395.84
2023-04-25T04:15:03.093Z,97402.00
2023-04-25T04:20:06.880Z,97407.19
2023-04-25T04:25:12.833Z,97402.81
2023-04-25T04:30:37.288Z,97414.78
2023-04-25T04:35:42.816Z,97416.03
2023-04-25T04:40:45.752Z,97421.31
2023-04-25T04:46:13.961Z,97415.97
2023-04-25T04:51:42.343Z,97416.31
2023-04-25T04:57:05.129Z,97421.22
2023-04-25T05:02:33.199Z,97418.88
2023-04-25T05:07:53.445Z,97425.38
2023-04-25T05:13:03.924Z,97422.28
2023-04-25T05:18:05.909Z,97419.38
2023-04-25T05:23:43.118Z,97418.03
2023-04-25T05:29:06.426Z,97415.44
2023-04-25T05:34:21.539Z,97420.56
2023-04-25T05:39:32.379Z,97416.53
2023-04-25T05:44:56.949Z,97423.16
2023-04-25T05:50:17.296Z,97433.00
2023-04-25T05:55:25.835Z,97425.56
2023-04-25T06:00:28.803Z,97435.59
2023-04-25T06:05:31.642Z,97422.16
2023-04-25T06:10:34.862Z,97428.91
2023-04-25T06:15:36.706Z,97432.06
2023-04-25T06:20:38.546Z,97434.72
2023-04-25T06:25:41.069Z,97429.59
2023-04-25T06:30:43.179Z,97436.44
2023-04-25T06:35:49.318Z,97427.72
2023-04-25T06:40:54.959Z,97433.84
2023-04-25T06:45:57.426Z,97426.97
2023-04-25T06:51:02.359Z,97421.25
2023-04-25T06:56:04.795Z,97422.53
2023-04-25T07:01:27.147Z,97427.31
2023-04-25T07:06:30.328Z,97427.72
2023-04-25T07:11:32.810Z,97428.09
2023-04-25T07:16:34.911Z,97428.31
2023-04-25T07:21:37.622Z,97437.59
2023-04-25T07:26:41.161Z,97440.97
2023-04-25T07:32:02.434Z,97444.94
2023-04-25T07:37:04.474Z,97441.72
2023-04-25T07:42:15.099Z,97437.91
2023-04-25T07:47:22.958Z,97443.41
2023-04-25T07:52:25.866Z,97433.47
2023-04-25T07:57:36.498Z,97426.72
2023-04-25T08:02:39.002Z,97438.91
2023-04-25T08:07:43.471Z,97443.91
2023-04-25T08:12:46.670Z,97447.88
2023-04-25T08:17:48.838Z,97447.31
2023-04-25T08:22:51.216Z,97457.16
2023-04-25T08:28:12.004Z,97455.38
2023-04-25T08:33:15.109Z,97465.56
2023-04-25T08:38:36.178Z,97471.94
2023-04-25T08:43:45.358Z,97473.97
2023-04-25T08:48:48.054Z,97476.72
2023-04-25T08:53:57.519Z,97484.63
2023-04-25T08:59:02.104Z,97487.38
2023-04-25T09:04:05.019Z,97502.34
2023-04-25T09:09:11.931Z,97502.34
2023-04-25T09:14:21.615Z,97508.38
2023-04-25T09:19:41.441Z,97508.94
2023-04-25T09:25:08.836Z,97513.16
2023-04-25T09:30:12.257Z,97533.38
2023-04-25T09:35:46.212Z,97531.59
2023-04-25T09:41:00.114Z,97534.63
2023-04-25T09:46:16.633Z,97538.81
2023-04-25T09:51:28.869Z,97549.50
2023-04-25T09:56:37.074Z,97547.75
2023-04-25T10:01:42.573Z,97542.56
2023-04-25T10:06:51.563Z,97547.09
2023-04-25T10:11:54.562Z,97542.84
2023-04-25T10:16:57.531Z,97547.41
2023-04-25T10:22:21.672Z,97560.88
2023-04-25T10:27:23.858Z,97568.94
2023-04-25T10:32:26.064Z,97569.19
2023-04-25T10:37:27.990Z,97565.06
2023-04-25T10:42:31.265Z,97564.28
2023-04-25T10:47:37.629Z,97563.69
2023-04-25T10:52:42.522Z,97575.66
2023-04-25T10:57:47.336Z,97568.59
2023-04-25T11:02:54.380Z,97572.06
2023-04-25T11:08:07.878Z,97590.31
2023-04-25T11:13:10.495Z,97595.97
2023-04-25T11:18:18.157Z,97600.25
2023-04-25T11:23:20.123Z,97605.59
2023-04-25T11:28:27.332Z,97610.22
2023-04-25T11:33:29.598Z,97622.66
2023-04-25T11:38:31.452Z,97625.00
2023-04-25T11:43:33.581Z,97629.69
2023-04-25T11:48:43.782Z,97635.50
2023-04-25T11:53:45.982Z,97634.25
2023-04-25T11:59:02.994Z,97637.69
2023-04-25T12:04:14.014Z,97641.97
2023-04-25T12:09:19.578Z,97642.91
2023-04-25T12:14:25.129Z,97645.31
2023-04-25T12:19:33.830Z,97650.81
2023-04-25T12:24:38.730Z,97658.06
2023-04-25T12:29:52.329Z,97646.88
2023-04-25T12:34:54.200Z,97650.03
2023-04-25T12:39:56.377Z,97647.34
2023-04-25T12:44:58.233Z,97647.03
2023-04-25T12:50:00.115Z,97652.72
2023-04-25T12:55:02.175Z,97652.94
2023-04-25T13:00:05.506Z,97648.63
2023-04-25T13:05:07.747Z,97649.44
2023-04-25T13:10:09.733Z,97659.38
2023-04-25T13:15:12.562Z,97657.63
2023-04-25T13:20:16.009Z,97667.16
2023-04-25T13:25:17.911Z,97671.75
2023-04-25T13:30:19.811Z,97675.53
2023-04-25T13:35:21.718Z,97688.09
2023-04-25T13:40:25.464Z,97704.59
2023-04-25T13:45:27.856Z,97707.50
2023-04-25T13:50:29.836Z,97710.13
2023-04-25T13:55:40.086Z,97719.19
2023-04-25T14:00:44.696Z,97717.47
2023-04-25T14:05:46.619Z,97727.69
2023-04-25T14:10:48.453Z,97724.66
2023-04-25T14:15:51.566Z,97728.59
2023-04-25T14:20:53.448Z,97738.00
2023-04-25T14:25:55.403Z,97730.28
2023-04-25T14:30:57.532Z,97734.84
2023-04-25T14:35:59.498Z,97728.38
2023-04-25T14:41:01.568Z,97730.78
2023-04-25T14:46:04.497Z,97724.94
2023-04-25T14:51:06.748Z,97734.47
2023-04-25T14:56:08.766Z,97731.63
2023-04-25T15:01:11.280Z,97739.16
2023-04-25T15:06:13.591Z,97737.84
2023-04-25T15:11:15.723Z,97743.38
2023-04-25T15:16:17.827Z,97748.22
2023-04-25T15:21:19.726Z,97750.56
2023-04-25T15:26:22.295Z,97763.41
2023-04-25T15:31:24.109Z,97769.41
2023-04-25T15:36:26.768Z,97771.03
2023-04-25T15:41:29.450Z,97775.06
2023-04-25T15:46:31.747Z,97772.38
2023-04-25T15:51:33.848Z,97783.03
2023-04-25T15:56:36.012Z,97776.94
2023-04-25T16:01:38.168Z,97783.28
2023-04-25T16:06:40.075Z,97785.09
2023-04-25T16:11:41.979Z,97782.38
2023-04-25T16:16:44.962Z,97782.38
2023-04-25T16:21:47.328Z,97787.22
2023-04-25T16:26:49.076Z,97784.28
2023-04-25T16:31:50.929Z,97786.97
2023-04-25T16:36:54.387Z,97791.81
2023-04-25T16:41:57.497Z,97795.03
2023-04-25T16:46:59.506Z,97798.09
2023-04-25T16:52:01.413Z,97803.47
2023-04-25T16:57:05.602Z,97806.94
2023-04-25T17:02:12.957Z,97809.25
2023-04-25T17:07:16.049Z,97809.97
2023-04-25T17:12:19.844Z,97825.00
2023-04-25T17:17:21.793Z,97822.13
2023-04-25T17:22:24.454Z,97830.25
2023-04-25T17:27:26.417Z,97838.38
2023-04-25T17:32:28.550Z,97839.53
2023-04-25T17:37:30.712Z,97850.09
2023-04-25T17:42:32.553Z,97851.25
2023-04-25T17:47:34.692Z,97854.19
2023-04-25T17:52:38.728Z,97856.69
2023-04-25T17:57:40.695Z,97865.97
2023-04-25T18:02:42.788Z,97879.78
2023-04-25T18:07:44.770Z,97876.09
2023-04-25T18:12:46.986Z,97880.66
2023-04-25T18:17:49.155Z,97880.19
2023-04-25T18:22:51.307Z,97888.31
2023-04-25T18:27:53.399Z,97890.00
2023-04-25T18:32:56.204Z,97899.09
2023-04-25T18:37:58.494Z,97893.09
2023-04-25T18:43:00.379Z,97909.81
2023-04-25T18:48:02.736Z,97907.72
2023-04-25T18:53:05.190Z,97924.94
2023-04-25T18:58:08.891Z,97927.53
2023-04-25T19:03:11.000Z,97928.19
2023-04-25T19:08:12.909Z,97940.84
2023-04-25T19:13:14.733Z,97941.69
2023-04-25T19:18:17.553Z,97942.97
2023-04-25T19:23:19.612Z,97938.13
2023-04-25T19:28:22.239Z,97953.03
2023-04-25T19:33:24.640Z,97943.16
2023-04-25T19:38:28.051Z,97942.69
2023-04-25T19:43:30.881Z,97958.72
2023-04-25T19:48:32.806Z,97957.44
2023-04-25T19:53:34.631Z,97961.31
2023-04-25T19:58:36.511Z,97965.22
2023-04-25T20:03:38.487Z,97962.13
2023-04-25T20:08:41.410Z,97964.09
2023-04-25T20:13:43.257Z,97960.84
2023-04-25T20:18:47.882Z,97958.59
2023-04-25T20:23:49.860Z,97976.88
2023-04-25T20:28:52.162Z,97988.53
2023-04-25T20:33:54.368Z,97989.97
2023-04-25T20:38:56.187Z,97994.69
2023-04-25T20:43:58.345Z,97994.19
2023-04-25T20:49:01.697Z,97993.53
2023-04-25T20:54:04.065Z,97996.28
2023-04-25T20:59:06.040Z,97993.06
2023-04-25T21:04:09.385Z,97987.38
2023-04-25T21:09:11.425Z,97989.66
2023-04-25T21:14:13.200Z,98009.69
2023-04-25T21:19:15.007Z,98011.31
2023-04-25T21:24:16.883Z,98000.31
2023-04-25T21:29:19.315Z,97998.84
2023-04-25T21:34:21.191Z,98006.94
2023-04-25T21:39:23.610Z,98007.91
2023-04-25T21:44:25.500Z,98010.50
2023-04-25T21:49:29.671Z,98004.50
2023-04-25T21:54:32.179Z,98012.28
2023-04-25T21:59:36.037Z,98016.81
2023-04-25T22:04:38.167Z,98017.78
2023-04-25T22:09:51.147Z,98023.75
2023-04-25T22:14:56.619Z,98034.91
2023-04-25T22:19:59.850Z,98031.69
2023-04-25T22:25:01.816Z,98045.91
2023-04-25T22:30:04.995Z,98051.38
2023-04-25T22:35:07.626Z,98057.53
2023-04-25T22:40:10.749Z,98063.84
2023-04-25T22:45:12.970Z,98066.88
2023-04-25T22:50:17.054Z,98066.53
2023-04-25T22:55:19.091Z,98070.09
2023-04-25T23:00:22.228Z,98068.47
2023-04-25T23:05:24.726Z,98061.69
2023-04-25T23:10:28.496Z,98068.13
2023-04-25T23:15:33.348Z,98075.41
2023-04-25T23:20:35.301Z,98078.28
2023-04-25T23:25:42.642Z,98077.78
2023-04-25T23:30:45.798Z,98086.81
2023-04-25T23:35:47.628Z,98090.06
2023-04-25T23:40:49.325Z,98088.59
2023-04-25T23:45:51.232Z,98091.34
2023-04-25T23:50:53.190Z,98091.66
2023-04-25T23:55:55.115Z,98104.88
